createdAt,value
2022-08-11T00:01:29.135Z,14.50
2022-08-11T00:04:03.714Z,14.50
2022-08-11T00:06:34.991Z,14.50
2022-08-11T00:09:05.492Z,14.40
2022-08-11T00:11:45.206Z,14.40
2022-08-11T00:14:37.027Z,14.40
2022-08-11T00:17:16.290Z,14.40
2022-08-11T00:20:13.124Z,14.40
2022-08-11T00:22:42.008Z,14.40
2022-08-11T00:25:15.809Z,14.30
2022-08-11T00:27:45.612Z,14.30
2022-08-11T00:30:14.630Z,14.30
2022-08-11T00:32:44.589Z,14.30
2022-08-11T00:35:54.135Z,14.20
2022-08-11T00:38:04.299Z,14.30
2022-08-11T00:40:53.427Z,14.20
2022-08-11T00:43:43.629Z,14.20
2022-08-11T00:46:32.492Z,14.10
2022-08-11T00:49:30.428Z,14.10
2022-08-11T00:52:16.509Z,14.10
2022-08-11T00:55:02.549Z,14.10
2022-08-11T00:57:48.227Z,14.00
2022-08-11T01:00:17.883Z,14.00
2022-08-11T01:03:03.650Z,14.00
2022-08-11T01:05:56.920Z,14.00
2022-08-11T01:08:42.886Z,13.90
2022-08-11T01:11:55.291Z,13.90
2022-08-11T01:14:54.555Z,13.90
2022-08-11T01:17:31.029Z,13.90
2022-08-11T01:20:45.248Z,13.90
2022-08-11T01:24:00.341Z,13.80
2022-08-11T01:27:05.398Z,13.80
2022-08-11T01:29:58.862Z,13.80
2022-08-11T01:33:10.635Z,13.80
2022-08-11T01:35:41.925Z,13.70
2022-08-11T01:38:47.057Z,13.70
2022-08-11T01:41:26.304Z,13.70
2022-08-11T01:44:31.745Z,13.70
2022-08-11T01:47:52.382Z,13.70
2022-08-11T01:50:49.058Z,13.70
2022-08-11T01:53:52.878Z,13.60
2022-08-11T01:57:01.363Z,13.60
2022-08-11T01:59:30.073Z,13.50
2022-08-11T02:02:21.456Z,13.50
2022-08-11T02:05:14.961Z,13.50
2022-08-11T02:08:20.101Z,13.50
2022-08-11T02:11:34.445Z,13.40
2022-08-11T02:14:31.977Z,13.40
2022-08-11T02:17:23.400Z,13.40
2022-08-11T02:20:34.174Z,13.40
2022-08-11T02:24:04.832Z,13.30
2022-08-11T02:26:10.802Z,13.30
2022-08-11T02:29:01.776Z,13.30
2022-08-11T02:32:14.721Z,13.30
2022-08-11T02:35:00.235Z,13.30
2022-08-11T02:37:54.905Z,13.20
2022-08-11T02:40:22.484Z,13.20
2022-08-11T02:42:57.531Z,13.20
2022-08-11T02:45:55.009Z,13.20
2022-08-11T02:49:07.093Z,13.20
2022-08-11T02:51:57.656Z,13.20
2022-08-11T02:54:40.222Z,13.20
2022-08-11T02:57:11.617Z,13.20
2022-08-11T02:59:52.449Z,13.10
2022-08-11T03:02:31.727Z,13.20
2022-08-11T03:05:08.470Z,13.20
2022-08-11T03:07:54.947Z,13.10
2022-08-11T03:10:43.979Z,13.20
2022-08-11T03:13:45.743Z,13.10
2022-08-11T03:16:47.416Z,13.10
2022-08-11T03:19:30.715Z,13.10
2022-08-11T03:22:24.127Z,13.10
2022-08-11T03:24:58.761Z,13.10
2022-08-11T03:28:13.937Z,13.10
2022-08-11T03:30:57.780Z,13.10
2022-08-11T03:33:56.547Z,13.10
2022-08-11T03:37:17.559Z,13.10
2022-08-11T03:40:00.370Z,13.10
2022-08-11T03:42:44.896Z,13.20
2022-08-11T03:45:50.175Z,13.10
2022-08-11T03:48:28.463Z,13.20
2022-08-11T03:51:23.860Z,13.20
2022-08-11T03:54:31.759Z,13.20
2022-08-11T03:57:24.059Z,13.20
2022-08-11T04:00:29.455Z,13.10
2022-08-11T04:03:12.017Z,13.20
2022-08-11T04:05:45.811Z,13.20
2022-08-11T04:08:34.190Z,13.10
2022-08-11T04:11:20.878Z,13.10
2022-08-11T04:14:31.206Z,13.10
2022-08-11T04:17:04.924Z,13.10
2022-08-11T04:19:54.133Z,13.20
2022-08-11T04:22:21.708Z,13.20
2022-08-11T04:24:59.561Z,13.20
2022-08-11T04:28:02.646Z,13.30
2022-08-11T04:31:06.962Z,13.20
2022-08-11T04:34:07.335Z,13.30
2022-08-11T04:37:14.365Z,13.30
2022-08-11T04:40:13.004Z,13.40
2022-08-11T04:43:17.985Z,13.40
2022-08-11T04:46:22.736Z,13.40
2022-08-11T04:49:34.132Z,13.30
2022-08-11T04:52:44.167Z,13.40
2022-08-11T04:55:45.750Z,13.40
2022-08-11T04:59:13.704Z,13.40
2022-08-11T05:02:17.118Z,13.50
2022-08-11T05:05:32.604Z,13.50
2022-08-11T05:08:27.037Z,13.60
2022-08-11T05:11:16.090Z,13.60
2022-08-11T05:14:08.071Z,13.60
2022-08-11T05:17:13.302Z,13.70
2022-08-11T05:20:05.144Z,13.70
2022-08-11T05:22:52.799Z,13.80
2022-08-11T05:26:44.689Z,13.90
2022-08-11T05:29:00.744Z,14.00
2022-08-11T05:32:14.339Z,14.00
2022-08-11T05:34:51.396Z,14.20
2022-08-11T05:37:32.310Z,14.20
2022-08-11T05:40:33.467Z,14.30
2022-08-11T05:43:22.029Z,14.40
2022-08-11T05:46:26.407Z,14.70
2022-08-11T05:49:12.827Z,14.90
2022-08-11T05:52:05.552Z,15.00
2022-08-11T05:55:06.373Z,15.10
2022-08-11T05:57:39.610Z,15.20
2022-08-11T06:00:20.147Z,15.40
2022-08-11T06:03:01.496Z,15.50
2022-08-11T06:05:43.973Z,15.60
2022-08-11T06:08:14.070Z,15.70
2022-08-11T06:10:46.974Z,15.70
2022-08-11T06:13:18.561Z,15.70
2022-08-11T06:15:52.607Z,15.80
2022-08-11T06:18:20.923Z,15.90
2022-08-11T06:20:55.168Z,16.00
2022-08-11T06:23:25.428Z,16.00
2022-08-11T06:25:56.115Z,15.90
2022-08-11T06:28:36.282Z,16.10
2022-08-11T06:31:24.418Z,16.10
2022-08-11T06:34:01.441Z,16.40
2022-08-11T06:36:40.618Z,16.40
2022-08-11T06:39:17.125Z,16.40
2022-08-11T06:41:53.621Z,16.50
2022-08-11T06:45:10.315Z,16.70
2022-08-11T06:47:46.128Z,16.60
2022-08-11T06:50:39.170Z,16.80
2022-08-11T06:53:10.922Z,16.90
2022-08-11T06:56:01.376Z,16.80
2022-08-11T06:58:53.681Z,16.80
2022-08-11T07:01:46.236Z,16.90
2022-08-11T07:04:32.019Z,17.10
2022-08-11T07:08:34.852Z,17.20
2022-08-11T07:11:28.532Z,17.20
2022-08-11T07:14:18.928Z,17.30
2022-08-11T07:16:49.774Z,17.50
2022-08-11T07:19:46.090Z,17.30
2022-08-11T07:22:33.382Z,17.40
2022-08-11T07:25:32.979Z,17.70
2022-08-11T07:28:32.876Z,17.60
2022-08-11T07:31:07.539Z,17.70
2022-08-11T07:34:05.245Z,17.80
2022-08-11T07:36:35.457Z,17.90
2022-08-11T07:39:04.095Z,17.90
2022-08-11T07:41:35.418Z,17.90
2022-08-11T07:44:09.434Z,17.90
2022-08-11T07:47:02.232Z,18.00
2022-08-11T07:49:50.495Z,18.30
2022-08-11T07:52:31.079Z,18.40
2022-08-11T07:55:05.190Z,18.30
2022-08-11T07:58:14.574Z,18.30
2022-08-11T08:01:09.873Z,18.70
2022-08-11T08:03:58.925Z,18.60
2022-08-11T08:06:47.405Z,18.60
2022-08-11T08:09:36.521Z,18.70
2022-08-11T08:12:24.196Z,18.50
2022-08-11T08:15:13.115Z,18.50
2022-08-11T08:18:09.979Z,18.90
2022-08-11T08:20:47.325Z,18.80
2022-08-11T08:23:15.691Z,18.80
2022-08-11T08:25:45.878Z,19.00
2022-08-11T08:28:17.314Z,19.30
2022-08-11T08:30:49.753Z,19.30
2022-08-11T08:33:30.781Z,19.30
2022-08-11T08:36:15.334Z,19.50
2022-08-11T08:38:50.890Z,19.40
2022-08-11T08:41:22.396Z,19.50
2022-08-11T08:43:53.937Z,19.50
2022-08-11T08:46:44.061Z,19.40
2022-08-11T08:49:17.310Z,19.40
2022-08-11T08:52:01.868Z,19.50
2022-08-11T08:54:40.044Z,19.50
2022-08-11T08:57:09.612Z,19.70
2022-08-11T08:59:49.238Z,19.60
2022-08-11T09:02:33.659Z,19.80
2022-08-11T09:05:04.827Z,19.80
2022-08-11T09:07:39.707Z,19.90
2022-08-11T09:10:11.406Z,20.00
2022-08-11T09:12:43.023Z,20.00
2022-08-11T09:15:12.493Z,20.00
2022-08-11T09:17:47.177Z,20.10
2022-08-11T09:20:25.608Z,20.20
2022-08-11T09:26:30.981Z,20.30
2022-08-11T09:28:59.759Z,20.30
2022-08-11T09:31:33.486Z,20.50
2022-08-11T09:34:03.799Z,20.40
2022-08-11T09:36:50.481Z,20.70
2022-08-11T09:39:38.106Z,20.70
2022-08-11T09:42:06.938Z,21.00
2022-08-11T09:44:49.203Z,21.00
2022-08-11T09:47:26.670Z,20.70
2022-08-11T09:50:00.649Z,20.50
2022-08-11T09:52:32.595Z,20.50
2022-08-11T09:55:01.389Z,20.90
2022-08-11T09:57:47.841Z,20.90
2022-08-11T10:00:15.930Z,21.10
2022-08-11T10:02:48.726Z,21.00
2022-08-11T10:05:37.929Z,21.10
2022-08-11T10:08:07.621Z,21.30
2022-08-11T10:10:37.855Z,21.30
2022-08-11T10:14:31.496Z,21.30
2022-08-11T10:16:15.214Z,21.30
2022-08-11T10:18:53.888Z,21.50
2022-08-11T10:21:30.525Z,21.50
2022-08-11T10:24:20.015Z,21.50
2022-08-11T10:26:55.815Z,21.50
2022-08-11T10:29:52.036Z,21.50
2022-08-11T10:32:57.930Z,21.60
2022-08-11T10:35:30.255Z,21.70
2022-08-11T10:38:15.657Z,21.60
2022-08-11T10:41:08.114Z,21.70
2022-08-11T10:44:02.107Z,21.70
2022-08-11T10:46:46.998Z,21.90
2022-08-11T10:49:15.257Z,21.90
2022-08-11T10:52:01.864Z,22.00
2022-08-11T10:54:48.807Z,22.30
2022-08-11T10:57:36.472Z,22.30
2022-08-11T11:00:07.120Z,22.30
2022-08-11T11:02:35.467Z,22.40
2022-08-11T11:05:25.388Z,22.40
2022-08-11T11:08:04.344Z,22.40
2022-08-11T11:10:32.949Z,22.60
2022-08-11T11:13:19.488Z,22.60
2022-08-11T11:16:06.321Z,22.60
2022-08-11T11:18:37.336Z,22.50
2022-08-11T11:21:17.609Z,22.50
2022-08-11T11:24:05.280Z,22.70
2022-08-11T11:27:09.767Z,22.70
2022-08-11T11:29:49.425Z,22.70
2022-08-11T11:33:02.836Z,22.50
2022-08-11T11:35:39.440Z,22.50
2022-08-11T11:38:14.153Z,22.70
2022-08-11T11:40:42.560Z,22.70
2022-08-11T11:43:10.684Z,23.00
2022-08-11T11:45:41.056Z,23.00
2022-08-11T11:48:09.146Z,23.00
2022-08-11T11:50:38.149Z,23.20
2022-08-11T11:53:09.923Z,23.30
2022-08-11T11:55:38.221Z,23.40
2022-08-11T11:58:24.790Z,23.40
2022-08-11T12:01:12.863Z,23.40
2022-08-11T12:03:41.329Z,23.50
2022-08-11T12:06:14.514Z,23.50
2022-08-11T12:08:43.396Z,23.60
2022-08-11T12:11:30.683Z,23.50
2022-08-11T12:14:02.333Z,23.60
2022-08-11T12:16:34.115Z,23.60
2022-08-11T12:19:35.573Z,23.80
2022-08-11T12:22:22.389Z,23.90
2022-08-11T12:25:08.699Z,24.00
2022-08-11T12:27:39.062Z,24.00
2022-08-11T12:30:11.141Z,24.00
2022-08-11T12:32:41.304Z,24.00
2022-08-11T12:35:09.642Z,23.90
2022-08-11T12:37:58.777Z,23.90
2022-08-11T12:41:15.038Z,23.90
2022-08-11T12:43:56.519Z,24.10
2022-08-11T12:46:29.588Z,24.20
2022-08-11T12:49:20.520Z,24.30
2022-08-11T12:52:14.788Z,24.30
2022-08-11T12:54:56.683Z,24.40
2022-08-11T12:57:58.745Z,24.50
2022-08-11T13:00:46.479Z,24.40
2022-08-11T13:03:33.195Z,23.90
2022-08-11T13:06:04.174Z,23.60
2022-08-11T13:08:35.788Z,23.90
2022-08-11T13:11:22.738Z,24.10
2022-08-11T13:13:57.605Z,24.20
2022-08-11T13:16:57.161Z,24.40
2022-08-11T13:19:25.250Z,24.40
2022-08-11T13:21:53.934Z,24.60
2022-08-11T13:24:23.024Z,24.60
2022-08-11T13:26:51.904Z,24.60
2022-08-11T13:29:25.740Z,24.50
2022-08-11T13:31:56.694Z,24.50
2022-08-11T13:34:27.098Z,24.50
2022-08-11T13:36:58.259Z,24.50
2022-08-11T13:39:28.783Z,24.70
2022-08-11T13:41:59.693Z,24.90
2022-08-11T13:44:31.383Z,24.90
2022-08-11T13:47:02.661Z,25.10
2022-08-11T13:49:39.694Z,25.20
2022-08-11T13:52:15.649Z,25.30
2022-08-11T13:54:45.122Z,25.30
2022-08-11T13:58:06.358Z,25.20
2022-08-11T14:00:23.440Z,24.80
2022-08-11T14:02:56.883Z,24.70
2022-08-11T14:05:37.581Z,24.90
2022-08-11T14:08:36.956Z,25.20
2022-08-11T14:12:22.156Z,25.30
2022-08-11T14:14:14.112Z,25.50
2022-08-11T14:16:44.867Z,25.40
2022-08-11T14:19:15.492Z,25.50
2022-08-11T14:22:07.300Z,25.60
2022-08-11T14:24:41.811Z,25.80
2022-08-11T14:28:34.144Z,25.80
2022-08-11T14:29:59.862Z,25.80
2022-08-11T14:32:27.758Z,25.90
2022-08-11T14:34:55.951Z,25.90
2022-08-11T14:37:25.730Z,26.00
2022-08-11T14:40:02.243Z,26.00
2022-08-11T14:42:49.994Z,25.80
2022-08-11T14:45:58.009Z,25.50
2022-08-11T14:48:24.740Z,25.70
2022-08-11T14:50:53.368Z,25.80
2022-08-11T14:53:23.555Z,25.70
2022-08-11T14:56:10.832Z,25.60
2022-08-11T14:58:40.741Z,25.70
2022-08-11T15:01:28.410Z,25.70
2022-08-11T15:04:04.337Z,25.60
2022-08-11T15:06:46.769Z,25.70
2022-08-11T15:09:14.833Z,25.70
2022-08-11T15:12:02.679Z,25.60
2022-08-11T15:14:48.772Z,25.60
2022-08-11T15:17:33.682Z,25.60
2022-08-11T15:20:35.717Z,25.60
2022-08-11T15:23:22.784Z,25.30
2022-08-11T15:25:58.683Z,24.90
2022-08-11T15:28:48.280Z,24.60
2022-08-11T15:31:36.180Z,24.40
2022-08-11T15:34:25.445Z,24.40
2022-08-11T15:37:18.080Z,24.30
2022-08-11T15:40:31.547Z,24.20
2022-08-11T15:43:42.444Z,24.30
2022-08-11T15:46:22.326Z,24.40
2022-08-11T15:48:58.411Z,24.40
2022-08-11T15:51:44.106Z,24.30
2022-08-11T15:54:16.038Z,24.20
2022-08-11T15:56:48.491Z,24.00
2022-08-11T15:59:42.809Z,23.90
2022-08-11T16:02:41.927Z,23.80
2022-08-11T16:05:14.283Z,23.70
2022-08-11T16:08:02.862Z,23.60
2022-08-11T16:10:33.138Z,23.50
2022-08-11T16:13:06.958Z,23.40
2022-08-11T16:15:56.785Z,23.40
2022-08-11T16:18:40.955Z,23.30
2022-08-11T16:21:11.458Z,23.30
2022-08-11T16:24:01.174Z,23.20
2022-08-11T16:27:10.913Z,23.10
2022-08-11T16:29:21.826Z,23.10
2022-08-11T16:32:13.559Z,22.90
2022-08-11T16:35:01.298Z,22.80
2022-08-11T16:37:48.492Z,22.80
2022-08-11T16:40:17.104Z,22.70
2022-08-11T16:43:10.930Z,22.60
2022-08-11T16:45:59.774Z,22.50
2022-08-11T16:48:35.161Z,22.40
2022-08-11T16:51:11.321Z,22.30
2022-08-11T16:53:59.739Z,22.30
2022-08-11T16:56:34.650Z,22.20
2022-08-11T16:59:17.917Z,22.10
2022-08-11T17:01:53.627Z,22.10
2022-08-11T17:04:39.653Z,22.00
2022-08-11T17:07:40.631Z,22.00
2022-08-11T17:10:51.026Z,21.90
2022-08-11T17:13:49.047Z,21.80
2022-08-11T17:16:25.505Z,21.70
2022-08-11T17:19:05.438Z,21.60
2022-08-11T17:22:06.441Z,21.60
2022-08-11T17:24:40.847Z,21.50
2022-08-11T17:27:09.765Z,21.50
2022-08-11T17:29:54.109Z,21.40
2022-08-11T17:33:10.317Z,21.30
2022-08-11T17:35:41.116Z,21.30
2022-08-11T17:38:19.222Z,21.30
2022-08-11T17:41:22.780Z,21.20
2022-08-11T17:44:11.330Z,21.10
2022-08-11T17:47:03.647Z,21.00
2022-08-11T17:49:37.914Z,21.00
2022-08-11T17:52:37.405Z,20.90
2022-08-11T17:55:51.613Z,20.90
2022-08-11T17:58:33.774Z,20.80
2022-08-11T18:01:08.712Z,20.80
2022-08-11T18:03:42.061Z,20.70
2022-08-11T18:06:29.731Z,20.60
2022-08-11T18:09:27.025Z,20.60
2022-08-11T18:12:14.505Z,20.50
2022-08-11T18:15:05.313Z,20.40
2022-08-11T18:17:53.115Z,20.40
2022-08-11T18:20:39.692Z,20.30
2022-08-11T18:23:42.008Z,20.30
2022-08-11T18:26:40.062Z,20.20
2022-08-11T18:29:27.485Z,20.10
2022-08-11T18:32:21.129Z,20.10
2022-08-11T18:35:12.917Z,20.00
2022-08-11T18:38:05.765Z,20.00
2022-08-11T18:40:54.121Z,19.90
2022-08-11T18:43:42.828Z,19.80
2022-08-11T18:46:31.675Z,19.80
2022-08-11T18:50:02.491Z,19.70
2022-08-11T18:52:38.998Z,19.70
2022-08-11T18:55:32.845Z,19.50
2022-08-11T18:58:25.361Z,19.50
2022-08-11T19:01:16.515Z,19.50
2022-08-11T19:04:11.002Z,19.40
2022-08-11T19:07:01.311Z,19.30
2022-08-11T19:09:49.163Z,19.30
2022-08-11T19:12:36.928Z,19.20
2022-08-11T19:15:24.158Z,19.20
2022-08-11T19:18:12.484Z,19.10
2022-08-11T19:21:02.966Z,19.10
2022-08-11T19:24:00.413Z,19.10
2022-08-11T19:26:48.350Z,19.00
2022-08-11T19:30:05.235Z,18.90
2022-08-11T19:32:47.385Z,18.90
2022-08-11T19:35:34.820Z,18.90
2022-08-11T19:38:22.052Z,18.80
2022-08-11T19:41:09.489Z,18.70
2022-08-11T19:43:57.319Z,18.70
2022-08-11T19:46:44.585Z,18.60
2022-08-11T19:49:31.935Z,18.60
2022-08-11T19:52:18.350Z,18.60
2022-08-11T19:55:05.555Z,18.50
2022-08-11T19:57:54.696Z,18.50
2022-08-11T20:00:42.159Z,18.40
2022-08-11T20:03:32.549Z,18.40
2022-08-11T20:06:22.134Z,18.30
2022-08-11T20:09:12.320Z,18.30
2022-08-11T20:12:01.768Z,18.20
2022-08-11T20:14:52.485Z,18.20
2022-08-11T20:17:42.896Z,18.20
2022-08-11T20:20:31.749Z,18.10
2022-08-11T20:23:23.533Z,18.10
2022-08-11T20:29:19.120Z,18.00
2022-08-11T20:32:08.438Z,17.90
2022-08-11T20:34:57.791Z,17.90
2022-08-11T20:37:50.257Z,17.90
2022-08-11T20:40:41.362Z,17.80
2022-08-11T20:44:05.556Z,17.80
2022-08-11T20:46:41.590Z,17.70
2022-08-11T20:49:41.287Z,17.70
2022-08-11T20:52:36.300Z,17.70
2022-08-11T20:55:45.524Z,17.70
2022-08-11T20:58:48.082Z,17.60
2022-08-11T21:01:41.269Z,17.50
2022-08-11T21:04:28.597Z,17.50
2022-08-11T21:07:24.745Z,17.40
2022-08-11T21:10:23.753Z,17.40
2022-08-11T21:13:25.298Z,17.40
2022-08-11T21:16:26.280Z,17.40
2022-08-11T21:20:00.605Z,17.30
2022-08-11T21:23:23.351Z,17.30
2022-08-11T21:26:16.075Z,17.20
2022-08-11T21:29:04.255Z,17.20
2022-08-11T21:31:51.710Z,17.20
2022-08-11T21:34:40.709Z,17.10
2022-08-11T21:37:28.028Z,17.10
2022-08-11T21:40:17.636Z,17.10
2022-08-11T21:43:06.017Z,17.00
2022-08-11T21:45:54.865Z,17.00
2022-08-11T21:48:44.705Z,17.00
2022-08-11T21:51:31.039Z,16.90
2022-08-11T21:54:19.887Z,16.90
2022-08-11T21:57:06.831Z,16.90
2022-08-11T22:00:12.084Z,16.90
2022-08-11T22:02:59.571Z,16.90
2022-08-11T22:05:47.194Z,16.80
2022-08-11T22:08:33.986Z,16.80
2022-08-11T22:11:32.255Z,16.80
2022-08-11T22:14:20.150Z,16.80
2022-08-11T22:17:06.375Z,16.70
2022-08-11T22:19:54.766Z,16.70
2022-08-11T22:22:52.185Z,16.70
2022-08-11T22:25:50.907Z,16.70
2022-08-11T22:28:41.183Z,16.70
2022-08-11T22:31:28.838Z,16.60
2022-08-11T22:34:15.115Z,16.60
2022-08-11T22:37:03.619Z,16.60
2022-08-11T22:40:02.592Z,16.60
2022-08-11T22:42:51.986Z,16.50
2022-08-11T22:45:38.864Z,16.50
2022-08-11T22:48:26.096Z,16.40
2022-08-11T22:51:13.817Z,16.40
2022-08-11T22:54:01.811Z,16.40
2022-08-11T22:56:49.677Z,16.40
2022-08-11T22:59:37.449Z,16.40
2022-08-11T23:02:25.361Z,16.30
2022-08-11T23:05:11.851Z,16.30
2022-08-11T23:07:59.527Z,16.30
2022-08-11T23:10:46.323Z,16.30
2022-08-11T23:13:32.655Z,16.20
2022-08-11T23:16:19.500Z,16.20
2022-08-11T23:19:07.202Z,16.20
2022-08-11T23:21:54.099Z,16.10
2022-08-11T23:24:41.394Z,16.10
2022-08-11T23:27:28.773Z,16.20
2022-08-11T23:30:18.921Z,16.10
2022-08-11T23:33:08.227Z,16.10
2022-08-11T23:36:01.081Z,16.10
2022-08-11T23:38:50.917Z,16.10
2022-08-11T23:41:37.144Z,16.00
2022-08-11T23:44:24.444Z,16.10
2022-08-11T23:47:14.228Z,16.00
2022-08-11T23:50:01.183Z,16.00
2022-08-11T23:52:49.027Z,15.90
2022-08-11T23:55:40.066Z,15.90
2022-08-11T23:58:26.913Z,15.90
